Terminal Aerodrome Forecast
Issued by NWS Miami, FL

Home | Current Version | Previous Version | Text Only | Print | Product List | Glossary On
Versions: 1 2 3 4 5 6 7 8 9 10 11 12 13 14 15 16 17 18 19 20 21 22 23 24 25 26 27 28 29 30
000
FTUS42 KMFL 201601 AAD
TAFFLL
TAF AMD
KFLL 201601Z 2016/2112 32008KT P6SM FEW024 BKN040
     FM201900 35008KT P6SM SCT035
     FM210100 01007KT P6SM FEW035=

USA.gov is the U.S. government's official web portal to all federal, state and local government web resources and services.